createdAt,value
2023-02-03T00:00:14.609Z,35.74
2023-02-03T00:03:18.883Z,35.59
2023-02-03T00:06:21.635Z,35.83
2023-02-03T00:09:24.579Z,35.86
2023-02-03T00:12:27.309Z,36.09
2023-02-03T00:15:30.254Z,36.07
2023-02-03T00:18:34.393Z,36.41
2023-02-03T00:21:37.129Z,36.03
2023-02-03T00:24:39.881Z,36.19
2023-02-03T00:27:42.728Z,36.42
2023-02-03T00:30:45.593Z,36.54
2023-02-03T00:33:49.988Z,36.62
2023-02-03T00:36:52.797Z,36.54
2023-02-03T00:39:55.585Z,36.55
2023-02-03T00:42:58.367Z,36.66
2023-02-03T00:46:01.400Z,36.62
2023-02-03T00:49:05.840Z,36.72
2023-02-03T00:52:08.615Z,36.83
2023-02-03T00:55:11.364Z,36.74
2023-02-03T00:58:14.172Z,36.69
2023-02-03T01:01:16.953Z,36.82
2023-02-03T01:04:21.105Z,36.80
2023-02-03T01:07:23.844Z,36.88
2023-02-03T01:10:26.893Z,36.94
2023-02-03T01:13:29.844Z,36.82
2023-02-03T01:16:36.342Z,36.99
2023-02-03T01:19:40.657Z,37.08
2023-02-03T01:22:43.832Z,36.92
2023-02-03T01:25:46.574Z,37.03
2023-02-03T01:28:52.464Z,36.99
2023-02-03T01:31:55.357Z,36.96
2023-02-03T01:34:59.608Z,37.04
2023-02-03T01:38:02.367Z,37.25
2023-02-03T01:41:05.938Z,37.22
2023-02-03T01:44:27.464Z,37.18
2023-02-03T01:47:32.309Z,37.10
2023-02-03T01:50:38.247Z,37.30
2023-02-03T01:53:41.592Z,37.29
2023-02-03T01:56:47.191Z,37.14
2023-02-03T01:59:50.609Z,37.30
2023-02-03T02:02:53.856Z,37.23
2023-02-03T02:06:01.793Z,37.06
2023-02-03T02:09:04.779Z,37.41
2023-02-03T02:12:07.563Z,37.37
2023-02-03T02:15:10.965Z,37.41
2023-02-03T02:18:22.650Z,37.48
2023-02-03T02:21:41.755Z,37.28
2023-02-03T02:25:05.341Z,37.42
2023-02-03T02:28:23.738Z,37.33
2023-02-03T02:31:45.273Z,37.27
2023-02-03T02:34:53.183Z,37.41
2023-02-03T02:38:00.969Z,37.38
2023-02-03T02:41:06.907Z,37.27
2023-02-03T02:44:13.423Z,37.15
2023-02-03T02:47:19.192Z,37.40
2023-02-03T02:50:25.884Z,37.36
2023-02-03T02:53:33.488Z,37.32
2023-02-03T02:56:38.028Z,37.30
2023-02-03T02:59:40.840Z,37.10
2023-02-03T03:02:43.622Z,37.33
2023-02-03T03:05:50.822Z,37.20
2023-02-03T03:08:57.108Z,37.39
2023-02-03T03:12:02.791Z,37.30
2023-02-03T03:15:08.384Z,37.24
2023-02-03T03:18:14.308Z,37.41
2023-02-03T03:21:26.979Z,37.33
2023-02-03T03:24:31.841Z,37.23
2023-02-03T03:27:37.150Z,37.26
2023-02-03T03:30:40.426Z,37.35
2023-02-03T03:33:43.389Z,37.41
2023-02-03T03:36:49.546Z,37.52
2023-02-03T03:39:55.290Z,37.28
2023-02-03T03:43:01.372Z,37.46
2023-02-03T03:46:08.260Z,37.63
2023-02-03T03:49:11.877Z,37.70
2023-02-03T03:52:17.892Z,37.58
2023-02-03T03:55:21.751Z,37.52
2023-02-03T03:58:26.177Z,37.56
2023-02-03T04:01:30.629Z,37.62
2023-02-03T04:04:34.498Z,37.39
2023-02-03T04:07:42.466Z,37.10
2023-02-03T04:10:45.427Z,37.02
2023-02-03T04:13:48.213Z,36.82
2023-02-03T04:16:51.036Z,36.77
2023-02-03T04:19:53.839Z,36.45
2023-02-03T04:22:58.137Z,36.65
2023-02-03T04:26:02.091Z,36.45
2023-02-03T04:29:04.881Z,36.25
2023-02-03T04:32:07.671Z,36.38
2023-02-03T04:35:10.516Z,36.23
2023-02-03T04:38:14.672Z,36.26
2023-02-03T04:41:17.477Z,36.02
2023-02-03T04:44:20.175Z,36.25
2023-02-03T04:47:23.039Z,36.03
2023-02-03T04:50:25.984Z,35.84
2023-02-03T04:53:30.322Z,35.90
2023-02-03T04:56:33.113Z,35.95
2023-02-03T04:59:35.911Z,35.85
2023-02-03T05:02:38.669Z,35.68
2023-02-03T05:05:41.452Z,35.80
2023-02-03T05:08:45.690Z,35.93
2023-02-03T05:11:48.423Z,35.71
2023-02-03T05:14:51.153Z,35.56
2023-02-03T05:17:54.124Z,35.82
2023-02-03T05:20:56.941Z,35.65
2023-02-03T05:24:03.283Z,35.63
2023-02-03T05:27:06.108Z,35.69
2023-02-03T05:30:09.567Z,35.66
2023-02-03T05:33:12.369Z,35.64
2023-02-03T05:36:15.216Z,35.57
2023-02-03T05:39:19.328Z,35.63
2023-02-03T05:42:21.078Z,35.56
2023-02-03T05:45:23.895Z,35.89
2023-02-03T05:48:26.605Z,35.40
2023-02-03T05:51:29.494Z,35.66
2023-02-03T05:54:33.670Z,35.62
2023-02-03T05:57:36.449Z,35.33
2023-02-03T06:00:39.185Z,35.67
2023-02-03T06:03:44.412Z,35.82
2023-02-03T06:06:48.566Z,35.76
2023-02-03T06:09:52.721Z,35.64
2023-02-03T06:12:55.570Z,35.72
2023-02-03T06:15:58.403Z,35.68
2023-02-03T06:19:02.151Z,35.90
2023-02-03T06:22:04.948Z,35.89
2023-02-03T06:25:11.843Z,35.94
2023-02-03T06:28:16.375Z,35.99
2023-02-03T06:31:19.332Z,36.11
2023-02-03T06:34:22.111Z,35.99
2023-02-03T06:37:24.965Z,36.22
2023-02-03T06:40:29.513Z,36.21
2023-02-03T06:43:32.745Z,36.33
2023-02-03T06:46:35.579Z,36.46
2023-02-03T06:49:38.296Z,36.43
2023-02-03T06:52:41.047Z,36.38
2023-02-03T06:55:45.205Z,36.28
2023-02-03T06:58:48.017Z,36.41
2023-02-03T07:01:50.856Z,36.49
2023-02-03T07:04:53.660Z,36.46
2023-02-03T07:07:56.504Z,36.50
2023-02-03T07:11:00.734Z,36.52
2023-02-03T07:14:04.055Z,36.56
2023-02-03T07:17:07.186Z,36.69
2023-02-03T07:20:10.334Z,36.63
2023-02-03T07:23:13.096Z,36.42
2023-02-03T07:26:17.643Z,36.70
2023-02-03T07:29:20.448Z,36.73
2023-02-03T07:32:23.189Z,36.76
2023-02-03T07:35:25.988Z,36.65
2023-02-03T07:38:29.213Z,36.77
2023-02-03T07:41:33.340Z,36.87
2023-02-03T07:44:36.074Z,36.84
2023-02-03T07:47:39.037Z,36.81
2023-02-03T07:50:42.147Z,36.86
2023-02-03T07:53:44.864Z,36.99
2023-02-03T07:56:49.052Z,36.84
2023-02-03T07:59:51.841Z,37.09
2023-02-03T08:02:54.833Z,36.84
2023-02-03T08:05:57.644Z,36.94
2023-02-03T08:09:00.413Z,36.95
2023-02-03T08:12:04.792Z,36.91
2023-02-03T08:15:08.668Z,37.05
2023-02-03T08:18:12.726Z,37.07
2023-02-03T08:21:15.479Z,36.99
2023-02-03T08:24:18.272Z,37.06
2023-02-03T08:27:24.001Z,37.02
2023-02-03T08:30:27.507Z,37.02
2023-02-03T08:33:30.540Z,36.81
2023-02-03T08:36:33.280Z,36.65
2023-02-03T08:39:36.424Z,36.62
2023-02-03T08:42:40.604Z,36.34
2023-02-03T08:45:43.470Z,36.19
2023-02-03T08:48:46.346Z,36.36
2023-02-03T08:51:49.414Z,35.95
2023-02-03T08:54:52.399Z,35.85
2023-02-03T08:57:57.849Z,35.91
2023-02-03T09:01:06.851Z,35.79
2023-02-03T09:04:10.246Z,35.87
2023-02-03T09:07:13.519Z,35.86
2023-02-03T09:10:16.469Z,35.98
2023-02-03T09:13:20.621Z,35.90
2023-02-03T09:16:23.571Z,36.03
2023-02-03T09:19:26.542Z,36.03
2023-02-03T09:22:29.340Z,36.19
2023-02-03T09:25:32.282Z,36.21
2023-02-03T09:28:36.944Z,36.34
2023-02-03T09:31:39.827Z,36.37
2023-02-03T09:34:42.796Z,36.32
2023-02-03T09:37:45.622Z,36.28
2023-02-03T09:40:52.305Z,36.50
2023-02-03T09:44:01.257Z,36.33
2023-02-03T09:47:05.586Z,36.67
2023-02-03T09:50:13.629Z,36.33
2023-02-03T09:53:24.278Z,36.50
2023-02-03T09:56:29.101Z,36.45
2023-02-03T09:59:34.756Z,36.49
2023-02-03T10:02:50.616Z,36.67
2023-02-03T10:06:06.007Z,36.59
2023-02-03T10:09:22.098Z,36.63
2023-02-03T10:12:48.876Z,36.63
2023-02-03T10:16:05.414Z,36.64
2023-02-03T10:19:12.052Z,36.71
2023-02-03T10:22:17.734Z,36.78
2023-02-03T10:25:25.008Z,36.80
2023-02-03T10:28:28.976Z,36.68
2023-02-03T10:31:36.486Z,36.87
2023-02-03T10:34:39.791Z,36.90
2023-02-03T10:37:45.014Z,36.70
2023-02-03T10:40:48.329Z,36.50
2023-02-03T10:43:55.534Z,36.41
2023-02-03T10:47:00.868Z,36.48
2023-02-03T10:50:07.534Z,36.07
2023-02-03T10:53:24.026Z,35.80
2023-02-03T10:56:28.198Z,35.89
2023-02-03T10:59:32.090Z,35.85
2023-02-03T11:02:36.475Z,35.73
2023-02-03T11:05:39.393Z,35.59
2023-02-03T11:08:43.700Z,35.75
2023-02-03T11:11:46.544Z,34.94
2023-02-03T11:14:50.252Z,34.72
2023-02-03T11:17:54.506Z,34.37
2023-02-03T11:20:58.190Z,34.48
2023-02-03T11:24:06.078Z,34.34
2023-02-03T11:27:11.759Z,34.18
2023-02-03T11:30:17.156Z,34.20
2023-02-03T11:33:25.140Z,34.08
2023-02-03T11:36:29.180Z,33.94
2023-02-03T11:39:35.709Z,33.87
2023-02-03T11:42:39.299Z,34.00
2023-02-03T11:45:43.591Z,33.76
2023-02-03T11:48:57.738Z,33.88
2023-02-03T11:52:06.779Z,33.77
2023-02-03T11:55:17.563Z,33.33
2023-02-03T11:58:45.979Z,33.54
2023-02-03T12:01:59.044Z,33.42
2023-02-03T12:05:15.665Z,33.44
2023-02-03T12:08:23.536Z,33.74
2023-02-03T12:11:32.736Z,33.51
2023-02-03T12:14:46.544Z,33.33
2023-02-03T12:18:03.820Z,33.45
2023-02-03T12:21:15.913Z,33.24
2023-02-03T12:24:26.645Z,33.56
2023-02-03T12:27:36.581Z,33.34
2023-02-03T12:30:41.044Z,33.12
2023-02-03T12:33:46.811Z,33.40
2023-02-03T12:36:54.587Z,33.35
2023-02-03T12:39:59.876Z,33.31
2023-02-03T12:43:08.063Z,33.42
2023-02-03T12:46:12.998Z,33.51
2023-02-03T12:49:21.885Z,33.54
2023-02-03T12:52:27.888Z,33.78
2023-02-03T12:55:35.529Z,34.05
2023-02-03T12:58:40.913Z,34.23
2023-02-03T13:01:46.976Z,34.23
2023-02-03T13:04:54.298Z,34.34
2023-02-03T13:08:03.099Z,34.44
2023-02-03T13:11:15.215Z,34.37
2023-02-03T13:14:21.763Z,34.52
2023-02-03T13:17:27.847Z,34.61
2023-02-03T13:20:31.635Z,34.80
2023-02-03T13:23:36.070Z,34.76
2023-02-03T13:26:54.294Z,34.23
2023-02-03T13:30:07.231Z,34.35
2023-02-03T13:33:31.270Z,34.54
2023-02-03T13:36:49.525Z,34.66
2023-02-03T13:40:05.212Z,34.40
2023-02-03T13:43:13.098Z,34.79
2023-02-03T13:46:22.114Z,34.76
2023-02-03T13:49:26.681Z,34.48
2023-02-03T13:52:32.991Z,35.95
2023-02-03T13:55:39.559Z,35.18
2023-02-03T13:58:42.387Z,34.98
2023-02-03T14:01:45.913Z,35.08
2023-02-03T14:04:54.409Z,34.96
2023-02-03T14:07:57.389Z,34.82
2023-02-03T14:11:18.961Z,34.88
2023-02-03T14:14:40.508Z,35.10
2023-02-03T14:18:04.271Z,34.68
2023-02-03T14:21:15.796Z,34.96
2023-02-03T14:24:20.983Z,34.87
2023-02-03T14:27:25.914Z,34.84
2023-02-03T14:30:28.972Z,34.91
2023-02-03T14:33:46.688Z,34.81
2023-02-03T14:36:53.075Z,34.78
2023-02-03T14:40:13.862Z,34.87
2023-02-03T14:43:29.511Z,34.90
2023-02-03T14:46:41.842Z,34.97
2023-02-03T14:49:56.066Z,34.89
2023-02-03T14:53:05.364Z,34.80
2023-02-03T14:56:14.784Z,35.02
2023-02-03T14:59:19.842Z,34.84
2023-02-03T15:02:25.864Z,35.07
2023-02-03T15:05:39.170Z,34.78
2023-02-03T15:08:44.308Z,34.74
2023-02-03T15:11:48.016Z,34.85
2023-02-03T15:14:52.268Z,34.81
2023-02-03T15:17:55.922Z,35.54
2023-02-03T15:20:58.924Z,35.96
2023-02-03T15:24:01.794Z,36.14
2023-02-03T15:27:04.716Z,36.49
2023-02-03T15:30:19.042Z,36.28
2023-02-03T15:33:22.775Z,36.39
2023-02-03T15:36:28.981Z,36.38
2023-02-03T15:39:39.258Z,36.28
2023-02-03T15:42:44.839Z,36.36
2023-02-03T15:45:55.076Z,36.21
2023-02-03T15:49:00.683Z,36.66
2023-02-03T15:52:08.287Z,36.02
2023-02-03T15:55:17.898Z,36.26
2023-02-03T15:58:23.069Z,35.99
2023-02-03T16:01:28.276Z,36.04
2023-02-03T16:04:31.854Z,35.57
2023-02-03T16:07:34.703Z,36.32
2023-02-03T16:10:37.493Z,35.86
2023-02-03T16:13:45.588Z,36.60
2023-02-03T16:17:04.481Z,37.09
2023-02-03T16:20:23.306Z,36.94
2023-02-03T16:23:27.662Z,36.87
2023-02-03T16:26:31.334Z,36.77
2023-02-03T16:29:54.570Z,37.21
2023-02-03T16:33:21.655Z,36.53
2023-02-03T16:36:42.218Z,36.47
2023-02-03T16:40:02.584Z,36.31
2023-02-03T16:43:23.515Z,36.18
2023-02-03T16:46:44.003Z,36.21
2023-02-03T16:50:05.706Z,35.97
2023-02-03T16:53:13.210Z,36.15
2023-02-03T16:56:18.680Z,36.10
2023-02-03T16:59:21.489Z,35.87
2023-02-03T17:02:24.420Z,35.70
2023-02-03T17:05:29.038Z,35.73
2023-02-03T17:08:32.164Z,35.66
2023-02-03T17:11:34.996Z,35.97
2023-02-03T17:14:37.876Z,36.10
2023-02-03T17:17:40.761Z,36.04
2023-02-03T17:20:45.850Z,35.87
2023-02-03T17:23:48.686Z,36.09
2023-02-03T17:26:52.689Z,36.04
2023-02-03T17:29:55.512Z,36.28
2023-02-03T17:32:59.426Z,36.17
2023-02-03T17:36:05.344Z,36.08
2023-02-03T17:55:50.591Z,36.94
2023-02-03T17:58:56.199Z,36.95
2023-02-03T18:01:59.106Z,37.09
2023-02-03T18:05:03.111Z,37.14
2023-02-03T18:08:16.111Z,37.12
2023-02-03T18:11:19.923Z,36.87
2023-02-03T18:14:22.703Z,37.03
2023-02-03T18:17:25.579Z,36.81
2023-02-03T18:20:28.773Z,36.51
2023-02-03T18:23:33.612Z,36.37
2023-02-03T18:26:37.226Z,36.16
2023-02-03T18:29:41.024Z,36.25
2023-02-03T18:32:44.218Z,35.98
2023-02-03T18:35:47.014Z,35.89
2023-02-03T18:38:51.272Z,36.03
2023-02-03T18:41:54.141Z,35.61
2023-02-03T18:44:56.927Z,35.86
2023-02-03T18:47:59.720Z,36.03
2023-02-03T18:51:03.085Z,35.89
2023-02-03T18:54:07.332Z,35.83
2023-02-03T18:57:13.037Z,35.93
2023-02-03T19:00:16.251Z,35.54
2023-02-03T19:03:21.289Z,35.57
2023-02-03T19:06:24.472Z,35.60
2023-02-03T19:09:28.651Z,35.46
2023-02-03T19:12:31.545Z,35.66
2023-02-03T19:15:34.452Z,35.80
2023-02-03T19:18:37.428Z,35.51
2023-02-03T19:21:40.196Z,35.48
2023-02-03T19:24:44.521Z,35.72
2023-02-03T19:27:47.381Z,35.52
2023-02-03T19:30:53.290Z,35.15
2023-02-03T19:34:00.746Z,35.55
2023-02-03T19:37:03.541Z,35.62
2023-02-03T19:40:08.677Z,36.05
2023-02-03T19:43:11.522Z,36.79
2023-02-03T19:46:14.825Z,37.26
2023-02-03T19:49:17.695Z,37.69
2023-02-03T19:52:20.541Z,37.69
2023-02-03T19:55:30.651Z,37.57
2023-02-03T19:58:33.589Z,37.60
2023-02-03T20:01:36.662Z,37.44
2023-02-03T20:04:39.614Z,37.35
2023-02-03T20:07:42.491Z,36.97
2023-02-03T20:10:47.278Z,37.25
2023-02-03T20:13:50.887Z,37.38
2023-02-03T20:16:53.743Z,37.41
2023-02-03T20:19:56.889Z,37.34
2023-02-03T20:23:00.307Z,37.47
2023-02-03T20:26:04.909Z,37.33
2023-02-03T20:29:08.013Z,37.40
2023-02-03T20:32:11.748Z,36.97
2023-02-03T20:35:14.700Z,37.19
2023-02-03T20:38:17.757Z,36.50
2023-02-03T20:41:21.996Z,36.58
2023-02-03T20:44:24.900Z,37.02
2023-02-03T20:47:27.854Z,36.92
2023-02-03T20:50:41.458Z,36.84
2023-02-03T20:53:45.386Z,36.69
2023-02-03T20:56:49.756Z,36.29
2023-02-03T20:59:52.875Z,36.41
2023-02-03T21:03:13.667Z,36.39
2023-02-03T21:06:17.535Z,36.41
2023-02-03T21:09:22.105Z,36.26
2023-02-03T21:12:26.946Z,36.26
2023-02-03T21:15:30.845Z,36.31
2023-02-03T21:18:39.625Z,36.18
2023-02-03T21:21:44.057Z,36.12
2023-02-03T21:24:53.961Z,35.93
2023-02-03T21:27:58.532Z,35.87
2023-02-03T21:31:01.511Z,35.90
2023-02-03T21:34:05.736Z,36.04
2023-02-03T21:37:09.401Z,36.47
2023-02-03T21:40:18.414Z,36.27
2023-02-03T21:43:23.955Z,36.30
2023-02-03T21:46:27.416Z,36.24
2023-02-03T21:49:30.307Z,35.98
2023-02-03T21:52:39.673Z,35.67
2023-02-03T21:55:43.439Z,36.59
2023-02-03T21:58:48.712Z,36.93
2023-02-03T22:01:53.122Z,36.32
2023-02-03T22:04:56.101Z,36.41
2023-02-03T22:07:58.920Z,36.39
2023-02-03T22:11:01.769Z,35.97
2023-02-03T22:14:06.066Z,36.32
2023-02-03T22:17:08.824Z,36.52
2023-02-03T22:20:12.371Z,36.67
2023-02-03T22:23:15.233Z,36.18
2023-02-03T22:26:18.573Z,36.47
2023-02-03T22:29:23.180Z,36.11
2023-02-03T22:32:26.075Z,36.11
2023-02-03T22:35:29.300Z,35.95
2023-02-03T22:38:32.159Z,36.02
2023-02-03T22:41:35.026Z,36.31
2023-02-03T22:44:39.234Z,36.21
2023-02-03T22:47:42.046Z,36.26
2023-02-03T22:50:44.856Z,36.11
2023-02-03T22:53:47.658Z,36.02
2023-02-03T22:56:50.539Z,35.95
2023-02-03T22:59:54.783Z,36.15
2023-02-03T23:02:57.727Z,36.17
2023-02-03T23:06:00.661Z,35.79
2023-02-03T23:09:03.466Z,35.88
2023-02-03T23:12:06.777Z,36.04
2023-02-03T23:15:11.780Z,36.03
2023-02-03T23:18:14.633Z,35.87
2023-02-03T23:21:18.272Z,36.06
2023-02-03T23:24:21.163Z,36.01
2023-02-03T23:27:24.006Z,35.63
2023-02-03T23:30:28.454Z,35.86
2023-02-03T23:33:31.444Z,35.91
2023-02-03T23:36:33.591Z,35.82
2023-02-03T23:39:36.393Z,36.08
2023-02-03T23:42:39.139Z,35.93
2023-02-03T23:45:43.361Z,35.92
2023-02-03T23:48:46.231Z,35.87
2023-02-03T23:51:49.065Z,35.92
2023-02-03T23:54:52.009Z,35.91
2023-02-03T23:57:54.878Z,35.73
